createdAt,value
2023-05-02T00:00:36.518Z,8.97
2023-05-02T00:03:05.648Z,8.94
2023-05-02T00:05:35.457Z,8.93
2023-05-02T00:08:03.324Z,8.96
2023-05-02T00:10:31.032Z,8.90
2023-05-02T00:12:58.686Z,8.91
2023-05-02T00:15:27.395Z,8.93
2023-05-02T00:17:55.131Z,8.90
2023-05-02T00:20:23.150Z,8.93
2023-05-02T00:22:52.244Z,8.92
2023-05-02T00:25:19.980Z,8.89
2023-05-02T00:27:48.889Z,8.88
2023-05-02T00:30:16.543Z,8.84
2023-05-02T00:32:44.247Z,8.88
2023-05-02T00:35:12.326Z,8.84
2023-05-02T00:37:40.095Z,8.81
2023-05-02T00:40:10.232Z,8.79
2023-05-02T00:42:37.861Z,8.78
2023-05-02T00:45:06.895Z,8.73
2023-05-02T00:47:34.945Z,8.72
2023-05-02T00:50:05.406Z,8.71
2023-05-02T00:52:34.143Z,8.62
2023-05-02T00:55:03.513Z,8.57
2023-05-02T00:57:34.020Z,8.57
2023-05-02T01:00:02.075Z,8.56
2023-05-02T01:02:39.093Z,8.51
2023-05-02T01:05:12.677Z,8.50
2023-05-02T01:07:55.540Z,8.46
2023-05-02T01:10:31.597Z,8.44
2023-05-02T01:13:04.581Z,8.46
2023-05-02T01:15:34.434Z,8.41
2023-05-02T01:18:04.436Z,8.41
2023-05-02T01:20:38.487Z,8.40
2023-05-02T01:23:12.454Z,8.34
2023-05-02T01:25:54.091Z,8.32
2023-05-02T01:28:36.448Z,8.29
2023-05-02T01:31:07.913Z,8.31
2023-05-02T01:33:36.885Z,8.26
2023-05-02T01:36:05.151Z,8.27
2023-05-02T01:38:35.262Z,8.19
2023-05-02T01:41:05.352Z,8.20
2023-05-02T01:43:36.178Z,8.16
2023-05-02T01:46:07.894Z,8.13
2023-05-02T01:48:37.035Z,8.11
2023-05-02T01:51:07.352Z,8.10
2023-05-02T01:53:36.849Z,8.10
2023-05-02T01:56:05.912Z,8.04
2023-05-02T01:58:37.140Z,8.07
2023-05-02T02:01:07.272Z,8.12
2023-05-02T02:03:35.163Z,8.11
2023-05-02T02:06:04.436Z,8.12
2023-05-02T02:08:32.208Z,8.13
2023-05-02T02:11:05.315Z,8.10
2023-05-02T02:13:38.430Z,8.13
2023-05-02T02:16:12.392Z,8.12
2023-05-02T02:18:40.636Z,8.14
2023-05-02T02:21:10.777Z,8.11
2023-05-02T02:23:43.343Z,8.11
2023-05-02T02:26:11.876Z,8.09
2023-05-02T02:28:40.502Z,8.12
2023-05-02T02:31:09.792Z,8.14
2023-05-02T02:33:37.581Z,8.13
2023-05-02T02:36:12.970Z,8.13
2023-05-02T02:38:47.101Z,8.14
2023-05-02T02:41:21.080Z,8.14
2023-05-02T02:44:00.431Z,8.11
2023-05-02T02:46:41.992Z,8.13
2023-05-02T02:49:24.412Z,8.12
2023-05-02T02:51:59.372Z,8.09
2023-05-02T02:54:34.225Z,8.10
2023-05-02T02:57:08.678Z,8.11
2023-05-02T02:59:41.667Z,8.10
2023-05-02T03:02:16.055Z,8.11
2023-05-02T03:04:45.504Z,8.08
2023-05-02T03:07:13.403Z,8.10
2023-05-02T03:09:45.173Z,8.14
2023-05-02T03:12:13.225Z,8.13
2023-05-02T03:14:41.610Z,8.12
2023-05-02T03:17:10.762Z,8.12
2023-05-02T03:19:38.761Z,8.10
2023-05-02T03:22:06.643Z,8.13
2023-05-02T03:24:34.289Z,8.08
2023-05-02T03:27:02.105Z,8.11
2023-05-02T03:29:29.827Z,8.09
2023-05-02T03:31:57.627Z,8.10
2023-05-02T03:34:26.732Z,8.06
2023-05-02T03:36:54.395Z,8.04
2023-05-02T03:39:22.109Z,8.00
2023-05-02T03:41:49.789Z,7.92
2023-05-02T03:44:17.440Z,7.88
2023-05-02T03:46:47.126Z,7.85
2023-05-02T03:49:14.836Z,7.83
2023-05-02T03:51:43.873Z,7.77
2023-05-02T03:54:11.589Z,7.75
2023-05-02T03:56:41.307Z,7.71
2023-05-02T03:59:10.533Z,7.62
2023-05-02T04:01:38.247Z,7.51
2023-05-02T04:04:06.366Z,7.60
2023-05-02T04:06:34.126Z,7.50
2023-05-02T04:09:03.219Z,7.42
2023-05-02T04:11:30.935Z,7.41
2023-05-02T04:13:58.613Z,7.39
2023-05-02T04:16:26.376Z,7.38
2023-05-02T04:18:54.066Z,7.45
2023-05-02T04:21:21.767Z,7.37
2023-05-02T04:23:55.645Z,7.47
2023-05-02T04:26:24.731Z,7.52
2023-05-02T04:28:55.422Z,7.52
2023-05-02T04:34:10.672Z,7.63
2023-05-02T04:36:45.678Z,7.66
2023-05-02T04:39:22.703Z,7.69
2023-05-02T04:41:57.922Z,7.78
2023-05-02T04:44:44.005Z,7.80
2023-05-02T04:47:17.731Z,7.76
2023-05-02T04:50:34.967Z,7.85
2023-05-02T04:53:10.010Z,7.89
2023-05-02T04:55:40.723Z,7.97
2023-05-02T05:01:27.906Z,8.09
2023-05-02T05:03:55.792Z,8.12
2023-05-02T05:06:41.999Z,8.17
2023-05-02T05:12:29.162Z,8.27
2023-05-02T05:15:04.225Z,8.39
2023-05-02T05:17:38.084Z,8.47
2023-05-02T05:20:11.545Z,8.59
2023-05-02T05:22:45.021Z,8.61
2023-05-02T05:25:21.433Z,8.69
2023-05-02T05:27:52.535Z,8.78
2023-05-02T05:30:39.879Z,8.79
2023-05-02T05:33:13.762Z,8.88
2023-05-02T05:35:47.532Z,8.87
2023-05-02T05:41:14.812Z,9.03
2023-05-02T05:43:56.273Z,9.04
2023-05-02T05:46:34.084Z,9.13
2023-05-02T05:49:10.201Z,9.18
2023-05-02T05:51:37.843Z,9.12
2023-05-02T05:54:23.674Z,9.06
2023-05-02T05:56:54.518Z,9.22
2023-05-02T05:59:39.977Z,9.23
2023-05-02T06:04:44.323Z,9.38
2023-05-02T06:07:12.009Z,9.40
2023-05-02T06:09:39.681Z,9.53
2023-05-02T06:12:07.425Z,9.57
2023-05-02T06:14:35.226Z,9.64
2023-05-02T06:17:02.937Z,9.63
2023-05-02T06:19:30.908Z,9.68
2023-05-02T06:21:59.976Z,9.66
2023-05-02T06:24:27.745Z,9.83
2023-05-02T06:26:55.407Z,9.92
2023-05-02T06:29:23.091Z,10.04
2023-05-02T06:31:51.619Z,9.96
2023-05-02T06:34:19.399Z,10.11
2023-05-02T06:36:47.111Z,10.23
2023-05-02T06:39:16.178Z,10.24
2023-05-02T06:41:43.950Z,10.35
2023-05-02T06:44:11.659Z,10.48
2023-05-02T06:46:39.426Z,10.60
2023-05-02T06:49:07.384Z,10.62
2023-05-02T06:51:35.102Z,10.60
2023-05-02T06:54:02.866Z,10.66
2023-05-02T06:56:32.277Z,10.69
2023-05-02T06:59:00.095Z,10.78
2023-05-02T07:01:27.988Z,10.67
2023-05-02T07:03:55.741Z,10.74
2023-05-02T07:06:23.497Z,11.04
2023-05-02T07:08:51.339Z,11.12
2023-05-02T07:11:19.291Z,11.12
2023-05-02T07:13:48.328Z,11.12
2023-05-02T07:16:16.192Z,11.27
2023-05-02T07:18:45.716Z,11.28
2023-05-02T07:21:13.781Z,11.31
2023-05-02T07:23:41.463Z,11.46
2023-05-02T07:26:09.204Z,11.52
2023-05-02T07:28:36.886Z,11.63
2023-05-02T07:31:06.030Z,11.84
2023-05-02T07:33:33.720Z,11.97
2023-05-02T07:36:03.120Z,11.99
2023-05-02T07:38:30.943Z,11.99
2023-05-02T07:40:59.852Z,12.09
2023-05-02T07:43:27.968Z,12.23
2023-05-02T07:45:56.202Z,12.06
2023-05-02T07:48:27.625Z,12.05
2023-05-02T07:50:55.696Z,12.03
2023-05-02T07:53:23.433Z,12.11
2023-05-02T07:55:51.159Z,12.27
2023-05-02T07:58:18.880Z,12.12
2023-05-02T08:00:46.666Z,12.31
2023-05-02T08:03:14.724Z,12.38
2023-05-02T08:05:44.025Z,12.48
2023-05-02T08:08:11.691Z,12.60
2023-05-02T08:10:39.407Z,12.60
2023-05-02T08:13:07.117Z,12.69
2023-05-02T08:15:35.034Z,12.99
2023-05-02T08:18:02.833Z,12.97
2023-05-02T08:20:30.883Z,12.66
2023-05-02T08:23:00.459Z,13.12
2023-05-02T08:25:28.322Z,13.43
2023-05-02T08:27:55.982Z,13.66
2023-05-02T08:30:23.729Z,13.82
2023-05-02T08:32:51.487Z,13.99
2023-05-02T08:35:19.302Z,13.66
2023-05-02T08:37:46.984Z,13.97
2023-05-02T08:40:24.616Z,14.24
2023-05-02T08:42:58.366Z,14.29
2023-05-02T08:45:26.076Z,14.35
2023-05-02T08:47:55.088Z,14.68
2023-05-02T08:50:23.683Z,14.93
2023-05-02T08:52:52.839Z,14.92
2023-05-02T08:55:27.721Z,15.02
2023-05-02T08:57:58.608Z,14.93
2023-05-02T09:00:26.476Z,14.87
2023-05-02T09:03:06.560Z,14.38
2023-05-02T09:05:41.684Z,14.66
2023-05-02T09:08:10.337Z,14.99
2023-05-02T09:10:43.032Z,15.17
2023-05-02T09:13:33.640Z,15.08
2023-05-02T09:16:02.741Z,15.39
2023-05-02T09:18:32.874Z,15.36
2023-05-02T09:21:01.720Z,15.49
2023-05-02T09:23:37.622Z,15.02
2023-05-02T09:26:21.164Z,14.79
2023-05-02T09:28:50.040Z,15.12
2023-05-02T09:31:26.884Z,14.88
2023-05-02T09:34:10.683Z,15.27
2023-05-02T09:36:41.724Z,15.44
2023-05-02T09:39:11.497Z,15.16
2023-05-02T09:41:44.199Z,15.68
2023-05-02T09:44:13.331Z,15.80
2023-05-02T09:46:42.845Z,15.46
2023-05-02T09:49:10.909Z,15.41
2023-05-02T09:51:38.799Z,15.63
2023-05-02T09:54:06.528Z,15.62
2023-05-02T09:56:56.322Z,15.84
2023-05-02T09:59:24.568Z,15.43
2023-05-02T10:02:00.088Z,15.40
2023-05-02T10:04:28.292Z,15.05
2023-05-02T10:06:56.945Z,15.13
2023-05-02T10:09:24.981Z,15.10
2023-05-02T10:11:56.235Z,15.19
2023-05-02T10:14:29.569Z,14.91
2023-05-02T10:17:02.575Z,15.08
2023-05-02T10:19:34.605Z,15.04
2023-05-02T10:22:03.190Z,14.86
2023-05-02T10:24:33.644Z,14.92
2023-05-02T10:27:05.594Z,15.01
2023-05-02T10:29:33.665Z,14.92
2023-05-02T10:32:02.234Z,15.23
2023-05-02T10:34:33.833Z,15.32
2023-05-02T10:37:02.294Z,15.62
2023-05-02T10:39:31.303Z,15.41
2023-05-02T10:42:02.213Z,15.73
2023-05-02T10:44:38.741Z,15.93
2023-05-02T10:47:28.029Z,16.09
2023-05-02T10:49:59.245Z,15.98
2023-05-02T10:52:29.128Z,15.90
2023-05-02T10:55:16.715Z,15.82
2023-05-02T10:58:22.551Z,16.14
2023-05-02T11:00:51.816Z,16.18
2023-05-02T11:03:57.558Z,16.25
2023-05-02T11:06:26.177Z,15.99
2023-05-02T11:08:54.220Z,15.87
2023-05-02T11:11:41.408Z,15.16
2023-05-02T11:14:09.516Z,14.45
2023-05-02T11:17:12.273Z,13.70
2023-05-02T11:20:26.514Z,13.57
2023-05-02T11:22:55.712Z,13.41
2023-05-02T11:25:35.061Z,13.11
2023-05-02T11:28:03.291Z,12.51
2023-05-02T11:30:45.009Z,11.90
2023-05-02T11:33:20.000Z,11.14
2023-05-02T11:35:49.141Z,10.76
2023-05-02T11:38:18.749Z,10.61
2023-05-02T11:40:54.646Z,10.64
2023-05-02T11:43:22.923Z,10.77
2023-05-02T11:45:50.936Z,10.79
2023-05-02T11:48:22.673Z,10.72
2023-05-02T11:50:51.886Z,10.71
2023-05-02T11:53:23.433Z,10.73
2023-05-02T11:55:52.800Z,10.90
2023-05-02T11:58:21.766Z,11.03
2023-05-02T12:00:51.043Z,11.05
2023-05-02T12:03:25.294Z,11.07
2023-05-02T12:05:53.877Z,11.15
2023-05-02T12:08:26.449Z,11.27
2023-05-02T12:10:56.045Z,11.19
2023-05-02T12:13:26.250Z,11.15
2023-05-02T12:18:30.123Z,11.74
2023-05-02T12:20:58.186Z,11.87
2023-05-02T12:23:27.349Z,11.99
2023-05-02T12:25:55.085Z,12.08
2023-05-02T12:28:23.961Z,12.11
2023-05-02T12:30:52.719Z,12.24
2023-05-02T12:33:20.840Z,12.30
2023-05-02T12:35:51.029Z,12.61
2023-05-02T12:38:21.118Z,12.68
2023-05-02T12:40:50.609Z,13.10
2023-05-02T12:43:18.877Z,13.33
2023-05-02T12:45:48.486Z,13.42
2023-05-02T12:48:26.912Z,13.42
2023-05-02T12:50:56.650Z,13.52
2023-05-02T12:53:41.431Z,13.69
2023-05-02T12:56:10.393Z,13.91
2023-05-02T12:58:45.772Z,14.28
2023-05-02T13:01:14.196Z,14.71
2023-05-02T13:03:42.884Z,14.99
2023-05-02T13:06:12.117Z,15.10
2023-05-02T13:08:39.955Z,15.21
2023-05-02T13:11:07.779Z,15.37
2023-05-02T13:13:35.624Z,15.29
2023-05-02T13:16:03.760Z,15.07
2023-05-02T13:18:31.606Z,15.24
2023-05-02T13:20:59.310Z,15.31
2023-05-02T13:23:28.371Z,15.03
2023-05-02T13:25:56.059Z,15.24
2023-05-02T13:28:23.749Z,15.09
2023-05-02T13:30:51.479Z,15.17
2023-05-02T13:33:19.242Z,15.14
2023-05-02T13:35:47.070Z,14.89
2023-05-02T13:38:14.705Z,14.63
2023-05-02T13:40:43.830Z,14.63
2023-05-02T13:43:11.493Z,14.25
2023-05-02T13:45:39.502Z,14.01
2023-05-02T13:48:07.775Z,13.92
2023-05-02T13:50:37.518Z,13.96
2023-05-02T13:53:05.245Z,14.06
2023-05-02T13:55:32.926Z,14.16
2023-05-02T13:58:02.733Z,14.10
2023-05-02T14:00:30.439Z,14.02
2023-05-02T14:02:58.240Z,13.77
2023-05-02T14:05:26.138Z,13.78
2023-05-02T14:07:53.811Z,13.76
2023-05-02T14:10:21.497Z,13.46
2023-05-02T14:12:49.313Z,13.35
2023-05-02T14:15:18.493Z,13.37
2023-05-02T14:17:46.211Z,13.30
2023-05-02T14:20:13.940Z,13.16
2023-05-02T14:22:44.521Z,12.95
2023-05-02T14:25:12.917Z,12.73
2023-05-02T14:27:40.662Z,12.66
2023-05-02T14:30:11.011Z,12.45
2023-05-02T14:32:40.222Z,12.24
2023-05-02T14:35:08.908Z,11.95
2023-05-02T14:37:36.635Z,11.93
2023-05-02T14:40:04.751Z,11.89
2023-05-02T14:42:32.755Z,11.71
2023-05-02T14:45:02.284Z,11.68
2023-05-02T14:47:30.834Z,11.48
2023-05-02T14:50:00.206Z,11.61
2023-05-02T14:52:28.365Z,11.47
2023-05-02T14:54:56.092Z,11.61
2023-05-02T14:57:23.868Z,11.77
2023-05-02T14:59:51.634Z,11.72
2023-05-02T15:02:19.470Z,11.77
2023-05-02T15:04:47.323Z,12.00
2023-05-02T15:07:16.688Z,11.97
2023-05-02T15:09:44.635Z,11.96
2023-05-02T15:12:12.293Z,12.05
2023-05-02T15:14:39.989Z,12.01
2023-05-02T15:17:07.918Z,12.18
2023-05-02T15:19:35.692Z,12.29
2023-05-02T15:22:03.395Z,12.26
2023-05-02T15:24:32.454Z,12.56
2023-05-02T15:27:00.147Z,12.65
2023-05-02T15:29:28.131Z,12.58
2023-05-02T15:31:55.869Z,12.58
2023-05-02T15:34:23.597Z,12.76
2023-05-02T15:36:52.353Z,12.85
2023-05-02T15:39:20.090Z,12.69
2023-05-02T15:41:49.156Z,12.63
2023-05-02T15:44:16.854Z,12.74
2023-05-02T15:46:46.883Z,12.77
2023-05-02T15:49:15.107Z,12.90
2023-05-02T15:51:42.795Z,12.96
2023-05-02T15:54:10.477Z,13.02
2023-05-02T15:56:38.808Z,12.95
2023-05-02T15:59:07.915Z,13.25
2023-05-02T16:01:35.655Z,13.63
2023-05-02T16:04:06.089Z,13.91
2023-05-02T16:06:34.128Z,13.77
2023-05-02T16:09:03.459Z,14.00
2023-05-02T16:11:31.658Z,13.86
2023-05-02T16:14:00.225Z,13.80
2023-05-02T16:16:29.717Z,13.40
2023-05-02T16:18:57.411Z,13.23
2023-05-02T16:21:25.147Z,13.20
2023-05-02T16:23:52.802Z,13.12
2023-05-02T16:26:21.435Z,12.99
2023-05-02T16:28:49.184Z,12.83
2023-05-02T16:31:17.169Z,12.67
2023-05-02T16:33:46.612Z,12.52
2023-05-02T16:36:14.717Z,12.39
2023-05-02T16:38:42.531Z,12.23
2023-05-02T16:41:10.276Z,11.98
2023-05-02T16:43:38.235Z,11.81
2023-05-02T16:46:07.364Z,11.69
2023-05-02T16:48:35.687Z,11.62
2023-05-02T16:51:04.928Z,11.57
2023-05-02T16:53:32.725Z,11.47
2023-05-02T16:56:00.444Z,11.47
2023-05-02T16:58:29.631Z,11.47
2023-05-02T17:00:57.403Z,11.34
2023-05-02T17:03:25.187Z,11.28
2023-05-02T17:05:52.852Z,11.12
2023-05-02T17:08:22.294Z,11.07
2023-05-02T17:10:50.578Z,10.96
2023-05-02T17:13:18.310Z,10.73
2023-05-02T17:15:46.401Z,10.64
2023-05-02T17:18:14.164Z,10.52
2023-05-02T17:20:42.175Z,10.36
2023-05-02T17:23:10.378Z,10.23
2023-05-02T17:25:39.528Z,10.08
2023-05-02T17:28:07.730Z,10.08
2023-05-02T17:30:35.643Z,9.95
2023-05-02T17:33:03.459Z,9.75
2023-05-02T17:35:31.635Z,9.58
2023-05-02T17:37:59.386Z,9.42
2023-05-02T17:40:27.117Z,9.38
2023-05-02T17:42:57.405Z,9.35
2023-05-02T17:45:25.184Z,9.43
2023-05-02T17:47:53.188Z,9.38
2023-05-02T17:50:20.946Z,9.41
2023-05-02T17:52:48.616Z,9.40
2023-05-02T17:55:18.868Z,9.37
2023-05-02T17:57:46.831Z,9.38
2023-05-02T18:00:16.934Z,9.35
2023-05-02T18:02:44.817Z,9.28
2023-05-02T18:05:12.684Z,9.21
2023-05-02T18:07:40.411Z,9.22
2023-05-02T18:10:08.931Z,9.12
2023-05-02T18:12:36.746Z,9.14
2023-05-02T18:15:05.839Z,9.10
2023-05-02T18:17:35.295Z,9.06
2023-05-02T18:20:04.221Z,8.99
2023-05-02T18:22:33.520Z,9.03
2023-05-02T18:25:01.869Z,9.01
2023-05-02T18:27:29.820Z,9.04
2023-05-02T18:29:57.551Z,9.00
2023-05-02T18:32:26.115Z,8.97
2023-05-02T18:34:55.352Z,8.99
2023-05-02T18:37:31.000Z,8.94
2023-05-02T18:39:58.870Z,8.93
2023-05-02T18:42:26.628Z,8.92
2023-05-02T18:44:54.453Z,8.88
2023-05-02T18:47:24.354Z,8.82
2023-05-02T18:49:52.084Z,8.72
2023-05-02T18:52:21.095Z,8.66
2023-05-02T18:54:48.724Z,8.57
2023-05-02T18:57:16.740Z,8.50
2023-05-02T18:59:44.473Z,8.41
2023-05-02T19:02:12.202Z,8.33
2023-05-02T19:04:39.901Z,8.28
2023-05-02T19:07:07.665Z,8.18
2023-05-02T19:09:36.713Z,8.12
2023-05-02T19:12:04.595Z,8.13
2023-05-02T19:14:33.210Z,8.13
2023-05-02T19:17:00.919Z,8.15
2023-05-02T19:19:28.618Z,8.14
2023-05-02T19:21:56.598Z,8.07
2023-05-02T19:24:24.491Z,8.00
2023-05-02T19:26:53.886Z,7.90
2023-05-02T19:29:21.659Z,7.82
2023-05-02T19:31:49.342Z,7.78
2023-05-02T19:34:17.063Z,7.77
2023-05-02T19:36:44.746Z,7.79
2023-05-02T19:39:13.173Z,7.84
2023-05-02T19:41:42.439Z,7.84
2023-05-02T19:44:11.526Z,7.80
2023-05-02T19:46:39.344Z,7.68
2023-05-02T19:49:07.113Z,7.58
2023-05-02T19:51:35.306Z,7.51
2023-05-02T19:54:02.996Z,7.48
2023-05-02T19:56:30.912Z,7.47
2023-05-02T19:58:58.644Z,7.41
2023-05-02T20:01:29.172Z,7.35
2023-05-02T20:03:56.992Z,7.32
2023-05-02T20:06:25.479Z,7.34
2023-05-02T20:08:53.263Z,7.27
2023-05-02T20:11:22.931Z,7.23
2023-05-02T20:13:50.617Z,7.19
2023-05-02T20:16:18.480Z,7.09
2023-05-02T20:18:47.589Z,6.97
2023-05-02T20:21:15.894Z,6.84
2023-05-02T20:23:44.975Z,6.74
2023-05-02T20:26:14.037Z,6.70
2023-05-02T20:28:41.724Z,6.62
2023-05-02T20:31:09.371Z,6.57
2023-05-02T20:33:44.647Z,6.57
2023-05-02T20:36:15.697Z,6.52
2023-05-02T20:38:44.571Z,6.53
2023-05-02T20:41:13.868Z,6.54
2023-05-02T20:43:44.251Z,6.43
2023-05-02T20:46:12.661Z,6.41
2023-05-02T20:48:40.575Z,6.38
2023-05-02T20:51:08.783Z,6.31
2023-05-02T20:53:38.156Z,6.21
2023-05-02T20:56:06.752Z,6.13
2023-05-02T20:58:34.562Z,6.00
2023-05-02T21:01:02.360Z,5.93
2023-05-02T21:03:30.037Z,5.85
2023-05-02T21:05:59.529Z,5.80
2023-05-02T21:08:27.221Z,5.81
2023-05-02T21:10:56.284Z,5.67
2023-05-02T21:13:24.013Z,5.59
2023-05-02T21:15:51.787Z,5.54
2023-05-02T21:18:19.500Z,5.45
2023-05-02T21:20:49.069Z,5.39
2023-05-02T21:23:16.778Z,5.39
2023-05-02T21:25:44.431Z,5.40
2023-05-02T21:28:13.495Z,5.33
2023-05-02T21:30:41.171Z,5.33
2023-05-02T21:33:09.413Z,5.28
2023-05-02T21:35:37.200Z,5.23
2023-05-02T21:38:04.897Z,5.22
2023-05-02T21:40:34.798Z,5.21
2023-05-02T21:43:02.488Z,5.13
2023-05-02T21:45:32.731Z,5.00
2023-05-02T21:48:01.302Z,4.88
2023-05-02T21:50:29.371Z,4.82
2023-05-02T21:52:57.037Z,4.90
2023-05-02T21:55:24.707Z,4.92
2023-05-02T21:57:52.374Z,4.84
2023-05-02T22:00:20.280Z,4.85
2023-05-02T22:02:49.431Z,4.81
2023-05-02T22:05:17.356Z,4.82
2023-05-02T22:07:44.990Z,4.77
2023-05-02T22:10:13.236Z,4.71
2023-05-02T22:12:40.976Z,4.64
2023-05-02T22:15:10.439Z,4.65
2023-05-02T22:17:38.293Z,4.62
2023-05-02T22:20:10.096Z,4.58
2023-05-02T22:22:37.733Z,4.49
2023-05-02T22:25:06.134Z,4.51
2023-05-02T22:27:33.883Z,4.46
2023-05-02T22:30:01.664Z,4.44
2023-05-02T22:32:29.557Z,4.39
2023-05-02T22:34:57.230Z,4.33
2023-05-02T22:37:26.256Z,4.26
2023-05-02T22:39:54.448Z,4.20
2023-05-02T22:42:22.282Z,4.12
2023-05-02T22:44:54.469Z,4.04
2023-05-02T22:47:22.738Z,3.96
2023-05-02T22:49:51.049Z,3.90
2023-05-02T22:58:29.115Z,3.76
2023-05-02T23:00:55.830Z,3.76
2023-05-02T23:03:22.284Z,3.75
2023-05-02T23:05:48.680Z,3.76
2023-05-02T23:08:15.003Z,3.79
2023-05-02T23:10:41.380Z,3.83
2023-05-02T23:13:07.712Z,3.82
2023-05-02T23:15:34.709Z,3.81
2023-05-02T23:18:01.097Z,3.82
2023-05-02T23:20:27.558Z,3.83
2023-05-02T23:22:53.918Z,3.82
2023-05-02T23:25:20.947Z,3.76
2023-05-02T23:27:47.213Z,3.72
2023-05-02T23:30:13.650Z,3.66
2023-05-02T23:32:40.661Z,3.63
2023-05-02T23:35:07.950Z,3.60
2023-05-02T23:37:34.431Z,3.62
2023-05-02T23:40:01.126Z,3.57
2023-05-02T23:42:28.124Z,3.53
2023-05-02T23:44:56.881Z,3.39
2023-05-02T23:47:26.055Z,3.31
2023-05-02T23:49:53.253Z,3.26
2023-05-02T23:52:19.652Z,3.21
2023-05-02T23:54:46.124Z,3.19
2023-05-02T23:57:12.420Z,3.15
2023-05-02T23:59:38.747Z,3.14
